Time;durP1;ratioP1;P1;durP2;ratioP2;P2;SDS_P1;SDS_P2;PMS_P1;PMS_P2;Temp;Humidity;BMP_temperature;BMP_pressure;BME280_temperature;BME280_humidity;BME280_pressure;Samples;Min_cycle;Max_cycle;Signal;HPM_P1;HPM_P2
2022/08/06 00:01:50;;;;;;;10.80;6.20;;;;;;;21.47;nan;100068.34;4989547;28;20720;-70
2022/08/06 00:04:15;;;;;;;10.68;5.80;;;;;;;21.56;nan;100072.66;4986525;28;20220;-71
2022/08/06 00:06:41;;;;;;;9.30;6.30;;;;;;;21.50;nan;100091.84;4989029;28;20736;-71
2022/08/06 00:09:07;;;;;;;12.02;5.82;;;;;;;21.39;nan;100093.94;4988422;28;20087;-70
2022/08/06 00:11:32;;;;;;;10.55;5.57;;;;;;;21.37;nan;100064.78;4987668;28;20103;-70
2022/08/06 00:13:58;;;;;;;9.57;6.22;;;;;;;21.36;nan;100099.94;4971492;28;20149;-69
2022/08/06 00:16:23;;;;;;;8.43;6.07;;;;;;;21.30;nan;100096.56;4986977;28;20041;-70
2022/08/06 00:18:48;;;;;;;9.10;6.15;;;;;;;;;;4983780;28;20041;-70
2022/08/06 00:21:14;;;;;;;10.13;6.97;;;;;;;21.09;nan;100082.84;4991147;28;20034;-70
2022/08/06 00:23:39;;;;;;;7.93;6.72;;;;;;;21.05;nan;100111.34;4991737;28;21069;-62
2022/08/06 00:26:05;;;;;;;11.27;6.53;;;;;;;21.00;nan;100085.47;4985377;28;20897;-63
2022/08/06 00:28:30;;;;;;;12.07;6.32;;;;;;;20.90;nan;100082.22;4988478;28;20026;-63
2022/08/06 00:30:55;;;;;;;10.00;6.82;;;;;;;20.90;nan;100095.59;4988448;28;20456;-64
2022/08/06 00:33:21;;;;;;;12.40;6.55;;;;;;;20.88;nan;100143.28;4989219;28;20155;-65
2022/08/06 00:35:46;;;;;;;11.18;6.80;;;;;;;20.84;nan;100083.44;4987798;28;20032;-64
2022/08/06 00:38:12;;;;;;;12.55;7.43;;;;;;;20.76;nan;100095.63;4985141;28;20048;-63
2022/08/06 00:40:38;;;;;;;11.38;7.50;;;;;;;20.73;nan;100093.53;4987477;28;20030;-65
2022/08/06 00:43:04;;;;;;;9.68;7.30;;;;;;;20.67;nan;100058.09;4970605;28;20049;-64
2022/08/06 00:45:30;;;;;;;12.30;7.40;;;;;;;;;;4987635;28;20037;-64
2022/08/06 00:47:56;;;;;;;13.77;7.78;;;;;;;;;;4990805;28;20097;-69
2022/08/06 00:50:21;;;;;;;9.73;7.20;;;;;;;20.54;nan;100088.28;4986586;28;20786;-71
2022/08/06 00:52:47;;;;;;;12.30;7.82;;;;;;;20.48;nan;100090.28;4991119;28;20030;-69
2022/08/06 00:55:12;;;;;;;9.90;7.47;;;;;;;20.49;nan;100094.53;4971523;28;20034;-70
2022/08/06 00:57:38;;;;;;;13.02;7.97;;;;;;;20.45;nan;100096.25;4972233;28;20038;-71
2022/08/06 01:00:05;;;;;;;14.38;7.88;;;;;;;20.32;nan;100036.31;4989123;28;20518;-62
2022/08/06 01:02:31;;;;;;;11.07;7.85;;;;;;;20.28;nan;100039.88;4987150;28;20034;-65
2022/08/06 01:04:56;;;;;;;16.92;8.65;;;;;;;20.32;nan;100086.31;4968517;28;20092;-63
2022/08/06 01:07:22;;;;;;;12.05;8.05;;;;;;;20.25;nan;100084.03;4985531;28;20026;-64
2022/08/06 01:09:49;;;;;;;15.63;8.60;;;;;;;20.29;nan;100102.97;4988822;28;20037;-64
2022/08/06 01:12:15;;;;;;;12.80;8.05;;;;;;;20.25;nan;100061.88;4987121;28;20041;-65
2022/08/06 01:14:40;;;;;;;15.07;7.75;;;;;;;20.23;nan;100093.44;4987271;28;20117;-63
2022/08/06 01:17:26;;;;;;;13.80;8.32;;;;;;;20.19;nan;100158.22;4986575;28;20712;-63
2022/08/06 01:20:28;;;;;;;12.63;7.75;;;;;;;20.16;nan;100101.84;4987592;28;20651;-64
2022/08/06 01:23:06;;;;;;;14.73;8.15;;;;;;;20.09;nan;100107.63;4987518;28;20261;-63
2022/08/06 01:26:02;;;;;;;10.25;7.80;;;;;;;20.05;nan;100098.59;4968361;28;20137;-64
2022/08/06 01:28:34;;;;;;;13.02;7.57;;;;;;;20.02;nan;100117.13;4986720;28;20038;-63
2022/08/06 01:31:25;;;;;;;12.27;7.72;;;;;;;19.67;nan;100061.28;4985676;28;20149;-64
2022/08/06 01:33:54;;;;;;;10.02;7.15;;;;;;;19.89;nan;100106.06;4988659;28;20034;-65
2022/08/06 01:36:31;;;;;;;15.10;8.55;;;;;;;19.87;nan;100075.41;4989189;28;20037;-64
2022/08/06 01:38:59;;;;;;;8.90;7.00;;;;;;;19.89;nan;100091.94;4985897;28;20033;-63
2022/08/06 01:41:42;;;;;;;15.10;7.05;;;;;;;19.89;nan;100078.56;4983130;28;20034;-63
2022/08/06 01:44:16;;;;;;;8.00;6.72;;;;;;;19.84;nan;100110.72;4966192;28;20045;-63
2022/08/06 01:46:49;;;;;;;8.32;6.65;;;;;;;19.76;nan;100107.63;4983652;28;20041;-65
2022/08/06 01:49:20;;;;;;;9.35;6.90;;;;;;;19.73;nan;100096.75;4986551;28;20129;-64
2022/08/06 01:51:49;;;;;;;14.50;6.97;;;;;;;19.80;nan;100093.69;4987645;28;20269;-70
2022/08/06 01:54:16;;;;;;;9.40;6.88;;;;;;;19.79;nan;100105.47;4990200;28;20435;-64
2022/08/06 01:56:46;;;;;;;11.52;7.45;;;;;;;19.78;nan;100094.00;4987507;28;20044;-64
2022/08/06 01:59:15;;;;;;;9.45;6.88;;;;;;;19.74;nan;100074.28;4988689;28;20092;-64
2022/08/06 02:01:41;;;;;;;13.55;7.47;;;;;;;19.75;nan;100148.00;4968816;28;20080;-65
2022/08/06 02:04:08;;;;;;;9.77;6.95;;;;;;;19.75;nan;100089.22;4987951;28;20034;-70
2022/08/06 02:06:39;;;;;;;11.05;7.05;;;;;;;19.70;nan;100098.13;4990010;28;20041;-71
2022/08/06 02:09:09;;;;;;;20.80;7.03;;;;;;;19.62;nan;100039.22;4989100;28;20044;-71
2022/08/06 02:11:36;;;;;;;11.70;7.45;;;;;;;19.61;nan;100105.22;4972017;28;20045;-70
2022/08/06 02:14:05;;;;;;;10.82;6.90;;;;;;;19.59;nan;100106.59;4986721;28;20181;-69
2022/08/06 02:16:38;;;;;;;11.53;6.87;;;;;;;19.56;nan;100086.56;4988214;28;20037;-63
2022/08/06 02:19:05;;;;;;;10.95;7.22;;;;;;;19.42;nan;100077.72;4987231;28;20029;-64
2022/08/06 02:21:32;;;;;;;11.90;7.05;;;;;;;19.50;nan;100095.75;4986245;28;20460;-64
2022/08/06 02:24:02;;;;;;;9.45;6.10;;;;;;;19.48;nan;100092.59;4986875;28;20115;-64
2022/08/06 02:26:30;;;;;;;11.32;6.25;;;;;;;19.46;nan;100108.09;4987361;28;20458;-63
2022/08/06 02:28:58;;;;;;;9.27;6.43;;;;;;;19.43;nan;100098.00;4986781;28;20072;-65
2022/08/06 02:31:23;;;;;;;9.48;6.53;;;;;;;;;;4986733;28;20026;-63
2022/08/06 02:33:50;;;;;;;9.07;5.72;;;;;;;19.39;nan;100134.38;4988492;28;20068;-64
2022/08/06 02:36:19;;;;;;;12.02;6.45;;;;;;;19.35;nan;100139.53;4986742;28;20041;-64
2022/08/06 02:38:58;;;;;;;8.45;5.78;;;;;;;19.41;nan;100105.50;4983857;28;20179;-64
2022/08/06 02:41:29;;;;;;;10.77;6.55;;;;;;;;;;4987535;28;20129;-64
2022/08/06 02:43:57;;;;;;;9.75;6.15;;;;;;;;;;4987500;28;20030;-63
2022/08/06 02:46:32;;;;;;;9.85;6.32;;;;;;;19.33;nan;100086.41;4984231;28;20036;-63
2022/08/06 02:49:07;;;;;;;11.23;6.70;;;;;;;19.30;nan;100100.34;4986880;28;20117;-65
2022/08/06 02:51:40;;;;;;;14.10;6.05;;;;;;;;;;4987368;28;20121;-70
2022/08/06 02:54:07;;;;;;;11.13;6.13;;;;;;;;;;4989272;28;20125;-70
2022/08/06 02:56:35;;;;;;;10.88;6.25;;;;;;;19.13;nan;100089.41;4987364;28;20117;-71
2022/08/06 02:59:02;;;;;;;11.02;5.97;;;;;;;19.13;nan;100110.75;4986341;28;20443;-71
2022/08/06 03:01:33;;;;;;;14.50;6.68;;;;;;;19.15;nan;100113.09;4988456;28;20604;-71
2022/08/06 03:04:01;;;;;;;15.15;6.07;;;;;;;19.11;nan;100089.69;4985385;28;20033;-69
2022/08/06 03:06:31;;;;;;;11.00;6.10;;;;;;;19.04;nan;100094.56;4969167;28;20052;-70
2022/08/06 03:08:58;;;;;;;17.83;6.35;;;;;;;18.96;nan;100097.09;4968246;28;20454;-69
2022/08/06 03:11:26;;;;;;;16.75;6.40;;;;;;;18.73;nan;100096.84;4987019;28;20042;-65
2022/08/06 03:13:52;;;;;;;14.55;5.80;;;;;;;;;;4984195;28;20042;-64
2022/08/06 03:16:19;;;;;;;22.27;6.22;;;;;;;18.71;nan;100099.00;4987734;28;20038;-64
2022/08/06 03:18:46;;;;;;;6.47;5.60;;;;;;;18.66;nan;100117.72;4986537;28;20065;-64
2022/08/06 03:21:12;;;;;;;10.85;6.35;;;;;;;18.63;nan;100150.31;4987106;28;20034;-64
2022/08/06 03:23:38;;;;;;;9.32;5.68;;;;;;;18.60;nan;100055.66;4986846;28;20260;-64
2022/08/06 03:26:05;;;;;;;7.10;5.60;;;;;;;18.66;nan;100094.50;4986727;28;20042;-66
2022/08/06 03:28:34;;;;;;;9.65;6.13;;;;;;;18.69;nan;100103.81;4986576;28;20591;-63
2022/08/06 03:31:01;;;;;;;13.07;5.05;;;;;;;18.70;nan;100110.75;4986135;28;20121;-71
2022/08/06 03:33:28;;;;;;;6.80;4.78;;;;;;;18.66;nan;100072.38;4984618;28;20038;-70
2022/08/06 03:35:55;;;;;;;8.02;4.82;;;;;;;18.72;nan;100100.56;4970689;28;20038;-71
2022/08/06 03:38:23;;;;;;;7.45;5.05;;;;;;;18.67;nan;100090.75;4987474;28;20026;-71
2022/08/06 03:40:50;;;;;;;7.05;4.85;;;;;;;18.72;nan;100111.25;4987627;28;20061;-71
2022/08/06 03:43:16;;;;;;;12.32;5.10;;;;;;;18.73;nan;100098.72;4984142;28;20726;-70
2022/08/06 03:45:50;;;;;;;9.55;5.30;;;;;;;18.74;nan;100127.75;4987376;28;20046;-64
2022/08/06 03:48:20;;;;;;;9.25;4.93;;;;;;;;;;4982468;28;20038;-64
2022/08/06 03:50:48;;;;;;;;;;;;;;;18.60;nan;100105.53;4986341;28;20065;-63
2022/08/06 03:53:19;;;;;;;6.53;5.00;;;;;;;18.58;nan;100089.81;4987375;28;19920;-64
2022/08/06 03:55:47;;;;;;;7.93;5.10;;;;;;;18.62;nan;100116.69;4985145;28;20069;-64
2022/08/06 03:58:14;;;;;;;7.82;5.03;;;;;;;18.58;nan;100179.69;4984104;28;20042;-65
2022/08/06 04:00:45;;;;;;;10.43;5.07;;;;;;;18.61;nan;100120.47;4985472;28;20100;-63
2022/08/06 04:03:12;;;;;;;7.18;5.22;;;;;;;18.62;nan;100132.72;4971146;28;20050;-63
2022/08/06 04:05:39;;;;;;;12.50;6.28;;;;;;;18.64;nan;100131.34;4988384;28;20709;-65
2022/08/06 04:08:05;;;;;;;9.82;6.43;;;;;;;;;;4973380;28;20033;-62
2022/08/06 04:10:38;;;;;;;10.45;6.50;;;;;;;18.61;nan;100104.47;4987837;28;20037;-62
2022/08/06 04:13:09;;;;;;;11.20;5.90;;;;;;;18.67;nan;100145.97;4990614;28;20061;-66
2022/08/06 04:15:36;;;;;;;10.13;6.25;;;;;;;18.73;nan;100144.84;4989020;28;20029;-62
2022/08/06 04:18:04;;;;;;;11.02;6.40;;;;;;;18.73;nan;100192.06;4986864;28;20121;-70
2022/08/06 04:20:31;;;;;;;15.63;7.25;;;;;;;18.74;nan;100143.75;4970811;28;20073;-65
2022/08/06 04:22:56;;;;;;;10.27;5.90;;;;;;;18.76;nan;100138.16;4987199;28;20505;-69
2022/08/06 04:25:24;;;;;;;7.95;5.30;;;;;;;18.81;nan;100159.47;4986002;28;20041;-64
2022/08/06 04:27:51;;;;;;;9.13;5.65;;;;;;;18.86;nan;100146.03;4973572;28;20021;-64
2022/08/06 04:30:17;;;;;;;12.65;5.38;;;;;;;18.90;nan;100155.88;4985362;28;20030;-66
2022/08/06 04:32:44;;;;;;;8.18;5.13;;;;;;;18.74;nan;100111.75;4986082;28;20048;-65
2022/08/06 04:35:10;;;;;;;8.50;5.25;;;;;;;18.90;nan;100077.69;4972663;28;20778;-70
2022/08/06 04:37:36;;;;;;;10.07;4.90;;;;;;;;;;4990311;28;20646;-71
2022/08/06 04:40:02;;;;;;;7.13;5.00;;;;;;;19.22;nan;100156.25;4992186;28;20053;-70
2022/08/06 04:42:28;;;;;;;8.63;4.95;;;;;;;19.32;nan;100158.78;4973386;28;20038;-66
2022/08/06 04:44:54;;;;;;;9.25;5.03;;;;;;;19.41;nan;100157.03;4989618;28;20112;-70
2022/08/06 04:47:21;;;;;;;11.82;5.10;;;;;;;19.45;nan;100191.97;4972040;28;20451;-71
2022/08/06 04:49:47;;;;;;;8.90;5.38;;;;;;;19.51;nan;100217.53;4991253;28;20023;-72
2022/08/06 04:52:25;;;;;;;13.75;5.18;;;;;;;19.65;nan;100132.13;4990160;28;20045;-71
2022/08/06 04:54:52;;;;;;;10.27;5.00;;;;;;;19.79;nan;100154.34;4989776;28;20046;-71
2022/08/06 04:57:17;;;;;;;10.38;5.03;;;;;;;19.85;nan;100088.25;4989293;28;20052;-71
2022/08/06 04:59:43;;;;;;;12.32;5.10;;;;;;;;;;4990807;28;20030;-71
2022/08/06 05:02:09;;;;;;;8.82;4.90;;;;;;;;;;4990489;28;20478;-70
2022/08/06 05:04:35;;;;;;;11.63;5.30;;;;;;;20.25;nan;100155.44;4988769;28;20038;-71
2022/08/06 05:07:09;;;;;;;12.80;5.20;;;;;;;20.33;nan;100139.53;4971602;28;20152;-70
2022/08/06 05:09:34;;;;;;;13.70;5.60;;;;;;;20.52;nan;100149.31;4991120;28;20446;-69
2022/08/06 05:12:06;;;;;;;13.73;6.93;;;;;;;20.63;nan;100160.66;4988034;28;20042;-71
2022/08/06 05:14:48;;;;;;;17.70;5.88;;;;;;;20.77;nan;100156.88;4982381;28;20038;-70
2022/08/06 05:17:19;;;;;;;20.30;6.45;;;;;;;20.90;nan;100133.88;4988344;28;20026;-70
2022/08/06 05:19:50;;;;;;;13.70;6.68;;;;;;;21.08;nan;100219.69;4972217;28;20030;-71
2022/08/06 05:22:17;;;;;;;14.15;7.28;;;;;;;21.16;nan;100155.50;4989473;28;20114;-70
2022/08/06 05:24:43;;;;;;;13.07;7.10;;;;;;;21.24;nan;100140.63;4985063;28;20084;-70
2022/08/06 05:27:11;;;;;;;18.65;7.20;;;;;;;;;;4986373;28;20436;-70
2022/08/06 05:29:39;;;;;;;14.63;7.22;;;;;;;21.35;nan;100171.44;4990693;28;20091;-71
2022/08/06 05:32:05;;;;;;;13.27;7.57;;;;;;;21.55;nan;100174.75;4989474;28;20073;-70
2022/08/06 05:34:31;;;;;;;14.00;8.07;;;;;;;21.70;nan;100161.03;4987898;28;20053;-64
2022/08/06 05:36:56;;;;;;;11.80;6.50;;;;;;;21.69;nan;100153.28;5000925;28;20041;-69
2022/08/06 05:39:22;;;;;;;10.65;6.88;;;;;;;21.87;nan;100201.34;5007029;28;20137;-67
2022/08/06 05:41:49;;;;;;;11.60;6.70;;;;;;;22.02;nan;100159.94;4993495;28;20049;-70
2022/08/06 05:44:14;;;;;;;11.55;7.00;;;;;;;;;;5005607;28;20626;-70
2022/08/06 05:46:50;;;;;;;12.90;6.30;;;;;;;;;;5005674;28;20038;-65
2022/08/06 05:49:22;;;;;;;11.75;5.95;;;;;;;22.31;nan;100169.41;5007343;28;20053;-70
2022/08/06 05:51:53;;;;;;;9.45;5.95;;;;;;;22.48;nan;100163.31;5007720;28;20117;-71
2022/08/06 05:54:22;;;;;;;14.50;6.03;;;;;;;22.63;nan;100173.66;5005764;28;20042;-70
2022/08/06 05:56:50;;;;;;;12.30;5.95;;;;;;;22.71;nan;100172.88;5007263;28;20508;-71
2022/08/06 05:59:24;;;;;;;13.98;6.10;;;;;;;22.87;nan;100188.56;5004841;28;20049;-70
2022/08/06 06:01:50;;;;;;;9.93;5.47;;;;;;;23.11;nan;100154.03;5010894;28;20021;-70
2022/08/06 06:04:16;;;;;;;8.75;5.57;;;;;;;;;;5007995;28;20042;-69
2022/08/06 06:06:43;;;;;;;11.82;5.75;;;;;;;23.35;nan;100163.53;5007063;28;20088;-66
2022/08/06 06:09:09;;;;;;;8.75;5.88;;;;;;;23.47;nan;100152.16;5005538;28;20132;-70
2022/08/06 06:11:37;;;;;;;9.75;4.90;;;;;;;23.51;nan;100172.69;5007243;28;20116;-71
2022/08/06 06:14:03;;;;;;;8.52;5.10;;;;;;;23.62;nan;100185.81;5006556;28;20034;-69
2022/08/06 06:16:35;;;;;;;7.57;4.43;;;;;;;23.80;nan;100179.34;5009197;28;20037;-70
2022/08/06 06:19:25;;;;;;;10.48;5.50;;;;;;;23.93;nan;100202.56;5008278;28;20116;-71
2022/08/06 06:21:58;;;;;;;6.72;4.50;;;;;;;23.99;nan;100166.31;5009915;28;20066;-71
2022/08/06 06:24:50;;;;;;;9.70;4.70;;;;;;;24.14;nan;100202.69;5004560;28;20129;-71
2022/08/06 06:27:33;;;;;;;5.32;4.13;;;;;;;24.23;nan;100186.53;4986601;28;20045;-72
2022/08/06 06:30:08;;;;;;;6.85;4.40;;;;;;;24.31;nan;100234.13;5005872;28;20791;-71
2022/08/06 06:32:53;;;;;;;9.27;4.90;;;;;;;24.38;nan;100191.34;4991103;28;20102;-71
2022/08/06 06:35:46;;;;;;;11.05;5.07;;;;;;;24.49;nan;100193.72;5004293;28;20045;-73
2022/08/06 06:38:56;;;;;;;7.75;4.30;;;;;;;24.68;nan;100142.94;5005702;28;20053;-71
2022/08/06 06:41:42;;;;;;;7.18;4.40;;;;;;;24.81;nan;100201.16;5000063;28;20049;-72
2022/08/06 06:44:15;;;;;;;5.00;4.32;;;;;;;24.88;nan;100176.41;5008251;28;20487;-71
2022/08/06 06:46:51;;;;;;;7.97;4.30;;;;;;;25.13;nan;100203.50;5004183;28;20492;-73
2022/08/06 06:49:39;;;;;;;11.32;5.32;;;;;;;25.28;nan;100191.38;5007068;28;20026;-71
2022/08/06 06:52:22;;;;;;;7.50;4.28;;;;;;;25.34;nan;100203.56;5006785;28;20076;-70
2022/08/06 06:54:56;;;;;;;8.02;5.00;;;;;;;25.34;nan;100169.28;5008538;28;20918;-70
2022/08/06 06:57:31;;;;;;;9.27;4.50;;;;;;;25.63;nan;100178.41;5004893;28;20076;-72
2022/08/06 07:00:00;;;;;;;10.10;4.75;;;;;;;25.71;nan;100172.13;5007751;28;20125;-73
2022/08/06 07:02:29;;;;;;;5.90;3.95;;;;;;;25.79;nan;100168.56;4986437;28;20049;-71
2022/08/06 07:04:57;;;;;;;8.48;4.18;;;;;;;25.94;nan;100185.28;4991196;28;20655;-69
2022/08/06 07:07:24;;;;;;;9.30;4.60;;;;;;;26.00;nan;100155.06;4971643;28;20065;-69
2022/08/06 07:09:53;;;;;;;8.45;5.05;;;;;;;26.18;nan;100157.53;4990197;28;20034;-70
2022/08/06 07:12:21;;;;;;;13.93;4.55;;;;;;;26.15;nan;100169.81;4989722;28;20026;-69
2022/08/06 07:14:50;;;;;;;6.60;4.47;;;;;;;26.21;nan;100195.44;4990621;28;20029;-71
2022/08/06 07:17:18;;;;;;;9.80;4.55;;;;;;;26.27;nan;100220.31;4990005;28;20034;-71
2022/08/06 07:19:46;;;;;;;10.10;4.82;;;;;;;26.48;nan;100210.22;4990472;28;20038;-71
2022/08/06 07:22:13;;;;;;;21.42;4.78;;;;;;;26.56;nan;100200.47;4991035;28;20036;-66
2022/08/06 07:24:41;;;;;;;6.20;4.70;;;;;;;26.60;nan;100173.56;4987491;28;20034;-67
2022/08/06 07:27:08;;;;;;;16.00;4.78;;;;;;;26.63;nan;100189.88;4987803;28;20065;-66
2022/08/06 07:29:35;;;;;;;12.02;4.40;;;;;;;26.77;nan;100178.72;4988873;28;20026;-68
2022/08/06 07:32:02;;;;;;;14.65;4.47;;;;;;;26.85;nan;100182.44;4988437;28;20739;-70
2022/08/06 07:34:29;;;;;;;6.32;3.97;;;;;;;26.97;nan;100181.63;4987543;28;20041;-70
2022/08/06 07:36:56;;;;;;;8.48;4.00;;;;;;;26.99;nan;100177.47;4989680;28;20037;-71
2022/08/06 07:39:26;;;;;;;6.32;4.00;;;;;;;27.06;nan;100185.00;4992667;28;20022;-71
2022/08/06 07:41:53;;;;;;;6.70;4.32;;;;;;;27.18;nan;100160.63;4993379;28;20042;-70
2022/08/06 07:44:23;;;;;;;7.82;4.45;;;;;;;27.27;nan;100220.78;4993945;28;20612;-70
2022/08/06 07:46:54;;;;;;;9.95;4.32;;;;;;;27.39;nan;100184.78;4992654;28;20041;-70
2022/08/06 07:49:23;;;;;;;8.23;4.82;;;;;;;27.43;nan;100198.44;4992358;28;20034;-70
2022/08/06 07:51:50;;;;;;;10.65;4.65;;;;;;;27.63;nan;100199.34;5010253;28;20121;-71
2022/08/06 07:54:18;;;;;;;6.38;4.55;;;;;;;27.85;nan;100155.53;5010365;28;20030;-71
2022/08/06 07:56:44;;;;;;;9.60;5.00;;;;;;;27.89;nan;100207.03;5011439;28;20065;-71
2022/08/06 07:59:10;;;;;;;6.20;4.18;;;;;;;27.96;nan;100166.63;4995168;28;20117;-71
2022/08/06 08:01:37;;;;;;;10.43;4.72;;;;;;;28.07;nan;100173.09;5014972;28;20484;-73
2022/08/06 08:06:53;;;;;;;9.85;4.00;;;;;;;28.24;nan;100231.53;5014091;28;20117;-70
2022/08/06 08:09:22;;;;;;;5.05;3.97;;;;;;;28.31;nan;100169.44;4996426;28;20125;-69
2022/08/06 08:11:48;;;;;;;;;;;;;;;28.46;nan;100205.78;4997268;28;20105;-71
2022/08/06 08:14:16;;;;;;;10.50;4.10;;;;;;;28.49;nan;100186.13;5011783;28;20367;-71
2022/08/06 08:16:43;;;;;;;5.90;3.90;;;;;;;28.53;nan;100188.94;5012206;28;20100;-71
2022/08/06 08:19:30;;;;;;;7.53;3.88;;;;;;;28.57;nan;100200.66;5012821;28;20471;-70
2022/08/06 08:22:05;;;;;;;4.47;3.85;;;;;;;28.77;nan;100160.84;5009288;28;20046;-70
2022/08/06 08:24:32;;;;;;;5.90;3.78;;;;;;;28.75;nan;100152.25;5009372;28;20042;-67
2022/08/06 08:26:59;;;;;;;7.85;3.80;;;;;;;28.86;nan;100185.03;5012406;28;20034;-68
2022/08/06 08:29:24;;;;;;;4.57;4.07;;;;;;;28.98;nan;100217.44;5010067;28;20042;-66
2022/08/06 08:31:50;;;;;;;5.70;3.72;;;;;;;29.05;nan;100169.56;5001901;28;21758;-66
2022/08/06 08:34:16;;;;;;;6.72;4.10;;;;;;;29.18;nan;100191.16;5010105;28;20479;-66
2022/08/06 08:36:41;;;;;;;5.65;4.10;;;;;;;29.24;nan;100173.47;4978024;28;20041;-66
2022/08/06 08:39:07;;;;;;;10.10;4.13;;;;;;;29.30;nan;100179.38;4985623;28;20045;-64
2022/08/06 08:41:41;;;;;;;7.75;4.15;;;;;;;29.33;nan;100247.28;4988317;28;20564;-65
2022/08/06 08:44:08;;;;;;;11.43;4.03;;;;;;;29.47;nan;100195.22;5007353;28;20479;-67
2022/08/06 08:46:44;;;;;;;4.10;3.67;;;;;;;29.52;nan;100194.94;5007409;28;20087;-66
2022/08/06 08:49:22;;;;;;;6.50;3.67;;;;;;;29.72;nan;100197.69;5011133;28;20034;-67
2022/08/06 08:51:50;;;;;;;4.90;3.75;;;;;;;29.80;nan;100181.16;5011538;28;20451;-68
2022/08/06 08:54:20;;;;;;;8.02;4.00;;;;;;;29.90;nan;100193.34;5008968;28;20038;-65
2022/08/06 08:56:47;;;;;;;6.38;3.50;;;;;;;29.87;nan;100194.06;5006298;28;20068;-67
2022/08/06 08:59:14;;;;;;;7.57;3.90;;;;;;;29.95;nan;100170.53;4987932;28;20041;-66
2022/08/06 09:01:40;;;;;;;5.70;3.47;;;;;;;30.04;nan;100188.16;5003738;28;20069;-67
2022/08/06 09:04:07;;;;;;;3.80;3.33;;;;;;;30.14;nan;100178.63;5011225;28;20443;-67
2022/08/06 09:06:33;;;;;;;3.97;3.40;;;;;;;30.23;nan;100192.75;5011983;28;20487;-67
2022/08/06 09:09:02;;;;;;;8.57;3.28;;;;;;;30.35;nan;100174.72;5009773;28;20044;-66
2022/08/06 09:11:28;;;;;;;5.97;3.30;;;;;;;30.49;nan;100223.84;5009834;28;20072;-66
2022/08/06 09:13:54;;;;;;;4.47;3.42;;;;;;;30.56;nan;100196.78;5012448;28;20030;-66
2022/08/06 09:16:20;;;;;;;6.85;3.90;;;;;;;30.57;nan;100190.19;5011306;28;20034;-66
2022/08/06 09:18:45;;;;;;;8.63;3.42;;;;;;;30.60;nan;100185.94;4989950;28;20109;-66
2022/08/06 09:21:10;;;;;;;7.72;3.28;;;;;;;30.62;nan;100170.06;5006692;28;20030;-66
2022/08/06 09:23:37;;;;;;;3.83;3.08;;;;;;;30.59;nan;100155.28;5010355;28;20026;-65
2022/08/06 09:26:05;;;;;;;5.00;3.22;;;;;;;30.73;nan;100173.72;5007459;28;20045;-66
2022/08/06 09:28:40;;;;;;;4.38;3.42;;;;;;;30.78;nan;100183.50;4990421;28;20033;-73
2022/08/06 09:31:17;;;;;;;5.60;3.25;;;;;;;30.84;nan;100191.00;5011030;28;20033;-73
2022/08/06 09:33:53;;;;;;;7.53;3.38;;;;;;;30.96;nan;100181.84;5011643;28;20030;-72
2022/08/06 09:36:19;;;;;;;6.75;3.33;;;;;;;31.04;nan;100180.78;5002590;28;20076;-73
2022/08/06 09:38:52;;;;;;;4.22;2.80;;;;;;;31.23;nan;100195.38;5010312;28;20057;-71
2022/08/06 09:41:20;;;;;;;5.68;2.78;;;;;;;31.27;nan;100207.06;5003910;28;20516;-71
2022/08/06 09:43:48;;;;;;;6.15;2.70;;;;;;;31.27;nan;100139.88;5008137;28;20034;-73
2022/08/06 09:46:14;;;;;;;4.30;3.03;;;;;;;31.36;nan;100216.53;5008954;28;20045;-71
2022/08/06 09:48:59;;;;;;;7.68;2.80;;;;;;;31.41;nan;100173.84;5005669;28;20037;-72
2022/08/06 09:51:26;;;;;;;3.03;2.55;;;;;;;31.49;nan;100172.78;5009220;28;20045;-72
2022/08/06 09:53:57;;;;;;;4.30;2.65;;;;;;;31.54;nan;100151.44;5000530;28;20041;-73
2022/08/06 09:56:23;;;;;;;3.00;2.58;;;;;;;31.70;nan;100166.75;5004414;28;20115;-71
2022/08/06 09:58:49;;;;;;;3.20;2.72;;;;;;;31.75;nan;100161.78;5007765;28;20044;-74
2022/08/06 10:01:24;;;;;;;5.20;2.63;;;;;;;31.85;nan;100222.94;5000772;28;20065;-73
2022/08/06 10:03:52;;;;;;;4.32;2.60;;;;;;;32.00;nan;100174.84;5002356;28;20037;-73
2022/08/06 10:06:22;;;;;;;3.63;2.47;;;;;;;32.04;nan;100177.59;5007986;28;20098;-74
2022/08/06 10:09:05;;;;;;;5.63;2.60;;;;;;;32.09;nan;100167.16;5008891;28;20045;-72
2022/08/06 10:11:38;;;;;;;3.15;2.30;;;;;;;32.15;nan;100167.56;5009340;28;20030;-72
2022/08/06 10:14:04;;;;;;;7.45;2.60;;;;;;;32.16;nan;100145.41;5007267;28;20037;-72
2022/08/06 10:16:30;;;;;;;4.82;2.53;;;;;;;32.23;nan;100155.59;5007860;28;20037;-73
2022/08/06 10:18:58;;;;;;;4.03;2.38;;;;;;;32.34;nan;100159.16;5002018;28;20125;-72
2022/08/06 10:21:26;;;;;;;4.03;2.40;;;;;;;32.45;nan;100185.72;5003490;28;20031;-72
2022/08/06 10:23:53;;;;;;;;;;;;;;;32.53;nan;100157.38;4984002;28;20697;-72
2022/08/06 10:26:27;;;;;;;3.03;2.47;;;;;;;32.59;nan;100123.16;4982357;28;20396;-70
2022/08/06 10:28:53;;;;;;;3.88;2.55;;;;;;;32.82;nan;100145.44;5000365;28;20093;-74
2022/08/06 10:31:20;;;;;;;4.07;2.30;;;;;;;32.82;nan;100189.06;4996219;28;20037;-73
2022/08/06 10:33:57;;;;;;;4.57;2.30;;;;;;;32.84;nan;100159.47;4987269;28;20034;-72
2022/08/06 10:36:44;;;;;;;4.10;2.83;;;;;;;32.79;nan;100189.06;5002949;28;20062;-72
2022/08/06 10:39:11;;;;;;;2.92;2.30;;;;;;;33.02;nan;100139.72;4987571;28;20034;-70
2022/08/06 10:41:38;;;;;;;6.18;2.42;;;;;;;33.12;nan;100108.97;4984126;28;20034;-71
2022/08/06 10:44:05;;;;;;;4.70;2.53;;;;;;;33.18;nan;100151.06;4989238;28;20503;-73
2022/08/06 10:46:31;;;;;;;5.18;2.55;;;;;;;33.21;nan;100139.41;4986192;28;20049;-72
2022/08/06 10:48:58;;;;;;;2.80;2.60;;;;;;;33.25;nan;100131.22;4989103;28;20113;-72
2022/08/06 10:51:24;;;;;;;3.70;2.70;;;;;;;33.30;nan;100138.25;4985034;28;20476;-73
2022/08/06 10:53:50;;;;;;;5.88;2.75;;;;;;;33.34;nan;100160.88;5000526;28;20603;-72
2022/08/06 10:56:18;;;;;;;4.63;2.30;;;;;;;33.39;nan;100144.13;4988884;28;20031;-73
2022/08/06 10:58:44;;;;;;;4.00;2.60;;;;;;;33.36;nan;100112.16;4989778;28;20038;-72
2022/08/06 11:01:45;;;;;;;2.92;2.50;;;;;;;33.47;nan;100145.69;4985518;28;20042;-72
2022/08/06 11:04:41;;;;;;;2.67;2.47;;;;;;;33.46;nan;100112.16;4987007;28;20046;-73
2022/08/06 11:07:06;;;;;;;2.90;2.60;;;;;;;33.48;nan;100131.66;4985534;28;20069;-73
2022/08/06 11:10:01;;;;;;;3.67;2.50;;;;;;;33.50;nan;100130.47;4983448;28;20066;-74
2022/08/06 11:12:52;;;;;;;5.65;2.40;;;;;;;33.48;nan;100077.06;4988236;28;20039;-73
2022/08/06 11:15:19;;;;;;;3.13;2.40;;;;;;;33.62;nan;100111.81;4986121;28;20046;-73
2022/08/06 11:17:51;;;;;;;2.45;2.25;;;;;;;33.75;nan;100117.69;4993326;28;20121;-68
2022/08/06 11:20:31;;;;;;;3.03;2.50;;;;;;;33.85;nan;100137.97;4992781;28;20039;-73
2022/08/06 11:22:58;;;;;;;2.45;2.25;;;;;;;33.88;nan;100137.19;4993268;28;20148;-66
2022/08/06 11:25:41;;;;;;;2.75;2.40;;;;;;;34.03;nan;100143.44;4987933;28;20122;-66
2022/08/06 11:28:11;;;;;;;3.03;2.30;;;;;;;34.12;nan;100118.47;5008510;28;20049;-67
2022/08/06 11:30:42;;;;;;;2.50;2.30;;;;;;;34.18;nan;100120.41;5010045;28;20625;-68
2022/08/06 11:33:09;;;;;;;4.07;2.50;;;;;;;34.22;nan;100112.22;5008373;28;20439;-74
2022/08/06 11:35:35;;;;;;;4.07;2.50;;;;;;;34.37;nan;100111.00;5012661;28;20034;-73
2022/08/06 11:38:03;;;;;;;3.08;2.78;;;;;;;34.42;nan;100118.03;5012036;28;20746;-74
2022/08/06 11:40:56;;;;;;;5.00;2.60;;;;;;;34.44;nan;100116.47;5008168;28;20062;-74
2022/08/06 11:43:40;;;;;;;2.50;2.30;;;;;;;34.49;nan;100118.00;5008485;28;20056;-73
2022/08/06 11:46:24;;;;;;;4.35;2.80;;;;;;;34.50;nan;100105.88;5007674;28;20082;-73
2022/08/06 11:49:00;;;;;;;4.72;2.40;;;;;;;34.55;nan;100100.00;5010870;28;20038;-66
2022/08/06 11:51:43;;;;;;;4.15;2.50;;;;;;;34.63;nan;100104.31;5008057;28;20380;-67
2022/08/06 11:54:26;;;;;;;2.58;2.10;;;;;;;34.71;nan;100099.59;5007276;28;20038;-73
2022/08/06 11:57:01;;;;;;;3.47;2.38;;;;;;;34.80;nan;100094.50;5004069;28;20081;-73
2022/08/06 11:59:28;;;;;;;2.67;2.47;;;;;;;34.81;nan;100084.31;5009835;28;20045;-73
2022/08/06 12:01:54;;;;;;;2.45;2.15;;;;;;;34.79;nan;100084.72;5006766;28;20026;-73
2022/08/06 12:04:32;;;;;;;3.78;2.65;;;;;;;34.75;nan;100094.91;5010113;28;20496;-73
2022/08/06 12:07:29;;;;;;;3.33;2.17;;;;;;;34.72;nan;100098.44;5008137;28;20045;-74